This is the latest recevied weather packets stored in our database for station/object OK1TOM-6. If no packets are shown the sender has not sent any weather packets the latest 10 day(s).
| Time | Temp. | Humidity | Pressure | Rain* | Wind** | Luminosity | Snow |
|---|---|---|---|---|---|---|---|
| 1777623341 | 12.78° C | 50% | 1031.9 hPa | 0 mm | - | - | - |
| 1777622738 | 12.22° C | 52% | 1031.7 hPa | 0 mm | - | - | - |
| 1777622134 | 12.22° C | 52% | 1031.7 hPa | 0 mm | - | - | - |
| 1777621561 | 12.22° C | 52% | 1031.8 hPa | 0 mm | - | - | - |
| 1777620957 | 11.67° C | 53% | 1031.6 hPa | 0 mm | - | - | - |
| 1777620354 | 11.67° C | 52% | 1031.8 hPa | 0 mm | - | - | - |
| 1777619750 | 11.67° C | 52% | 1031.7 hPa | 0 mm | - | - | - |
| 1777619147 | 11.11° C | 53% | 1031.6 hPa | 0 mm | - | - | - |
| 1777618543 | 10.56° C | 53% | 1031.6 hPa | 0 mm | - | - | - |
| 1777617940 | 10.56° C | 52% | 1031.5 hPa | 0 mm | - | - | - |
| 1777617337 | 11.11° C | 49% | 1031.4 hPa | 0 mm | - | - | - |
| 1777616733 | 10° C | 50% | 1031.4 hPa | 0 mm | - | - | - |
| 1777616130 | 10° C | 51% | 1031.4 hPa | 0 mm | - | - | - |
| 1777615526 | 9.44° C | 53% | 1031.4 hPa | 0 mm | - | - | - |
| 1777614923 | 8.33° C | 55% | 1031.3 hPa | 0 mm | - | - | - |
| 1777614320 | 7.78° C | 59% | 1031.3 hPa | 0 mm | - | - | - |
| 1777613716 | 7.22° C | 63% | 1031.3 hPa | 0 mm | - | - | - |
| 1777613173 | 6.11° C | 69% | 1031.2 hPa | 0 mm | - | - | - |
| 1777612570 | 4.44° C | 75% | 1031.1 hPa | 0 mm | - | - | - |
| 1777611966 | 3.33° C | 79% | 1031.1 hPa | 0 mm | - | - | - |
| 1777611363 | 2.78° C | 80% | 1031 hPa | 0 mm | - | - | - |
| 1777610759 | 2.78° C | 80% | 1031 hPa | 0 mm | - | - | - |
| 1777610156 | 1.67° C | 82% | 1031.1 hPa | 0 mm | - | - | - |
| 1777609552 | 1.11° C | 86% | 1030.9 hPa | 0 mm | - | - | - |
| 1777608949 | 0.56° C | 87% | 1030.8 hPa | 0 mm | - | - | - |
* Rain latest hour (hover to see other rain measurements)
** Current wind speed in m/s (hover to see current wind gust speed)